Time;durP1;ratioP1;P1;durP2;ratioP2;P2;SDS_P1;SDS_P2;PMS_P1;PMS_P2;Temp;Humidity;BMP_temperature;BMP_pressure;BME280_temperature;BME280_humidity;BME280_pressure;Samples;Min_cycle;Max_cycle;Signal;HPM_P1;HPM_P2
2021/06/02 00:00:08;;;;;;;5.65;1.92;;;;;;;;;;5133794;27;20027;-69
2021/06/02 00:02:34;;;;;;;4.18;1.60;;;;;;;;;;5134217;27;20440;-66
2021/06/02 00:05:02;;;;;;;4.13;1.70;;;;;;;;;;5133815;27;20069;-67
2021/06/02 00:07:28;;;;;;;5.07;1.63;;;;;;;;;;5133849;27;20023;-68
2021/06/02 00:09:56;;;;;;;5.07;2.05;;;;;;;;;;5133564;27;20020;-67
2021/06/02 00:12:22;;;;;;;6.57;2.17;;;;;;;;;;5133472;27;20023;-68
2021/06/02 00:14:48;;;;;;;3.90;1.60;;;;;;;;;;5133684;27;20094;-69
2021/06/02 00:17:16;;;;;;;6.28;1.80;;;;;;;;;;5133336;27;20042;-66
2021/06/02 00:19:42;;;;;;;4.03;1.90;;;;;;;;;;5133217;27;20038;-67
2021/06/02 00:22:09;;;;;;;4.53;1.70;;;;;;;;;;5133457;27;20035;-69
2021/06/02 00:24:35;;;;;;;4.30;1.70;;;;;;;;;;5133326;27;20031;-69
2021/06/02 00:27:04;;;;;;;6.03;2.17;;;;;;;;;;5133717;27;20054;-68
2021/06/02 00:29:32;;;;;;;5.65;1.70;;;;;;;;;;5133201;27;20019;-67
2021/06/02 00:31:58;;;;;;;5.07;1.60;;;;;;;;;;5133135;27;20026;-68
2021/06/02 00:34:24;;;;;;;5.63;1.58;;;;;;;;;;5133141;27;20027;-69
2021/06/02 00:36:50;;;;;;;5.03;1.60;;;;;;;;;;5133045;27;20031;-67
2021/06/02 00:39:17;;;;;;;3.72;1.60;;;;;;;;;;5132904;27;20027;-70
2021/06/02 00:41:45;;;;;;;6.22;2.05;;;;;;;;;;5132749;27;20026;-70
2021/06/02 00:44:14;;;;;;;4.50;1.70;;;;;;;;;;5133043;27;20041;-69
2021/06/02 00:46:41;;;;;;;5.32;1.85;;;;;;;;;;5132979;27;20509;-69
2021/06/02 00:49:08;;;;;;;4.35;1.92;;;;;;;;;;5132899;27;20019;-68
2021/06/02 00:51:34;;;;;;;3.25;1.40;;;;;;;;;;5132140;27;20058;-70
2021/06/02 00:54:01;;;;;;;3.97;1.88;;;;;;;;;;5132700;27;20023;-66
2021/06/02 00:56:32;;;;;;;5.35;1.70;;;;;;;;;;5132602;27;20019;-66
2021/06/02 00:59:02;;;;;;;3.75;1.92;;;;;;;;;;5132654;27;20034;-68
2021/06/02 01:01:31;;;;;;;3.03;1.55;;;;;;;;;;5132609;27;20035;-70
2021/06/02 01:03:58;;;;;;;4.95;2.25;;;;;;;;;;5132532;27;20027;-71
2021/06/02 01:06:25;;;;;;;6.22;2.00;;;;;;;;;;5132499;27;20031;-69
2021/06/02 01:08:52;;;;;;;6.00;2.00;;;;;;;;;;5145025;27;20641;-70
2021/06/02 01:11:19;;;;;;;7.60;1.75;;;;;;;;;;5153250;27;20062;-70
2021/06/02 01:13:45;;;;;;;5.15;1.98;;;;;;;;;;5153203;27;20046;-68
2021/06/02 01:16:11;;;;;;;6.60;2.08;;;;;;;;;;5153190;27;20018;-70
2021/06/02 01:18:37;;;;;;;3.60;1.65;;;;;;;;;;5134554;27;20023;-70
2021/06/02 01:21:10;;;;;;;3.53;1.70;;;;;;;;;;5153047;27;20050;-69
2021/06/02 01:23:36;;;;;;;3.20;1.50;;;;;;;;;;5152977;27;20015;-69
2021/06/02 01:26:03;;;;;;;4.57;2.10;;;;;;;;;;5152899;27;20144;-69
2021/06/02 01:28:29;;;;;;;4.93;1.80;;;;;;;;;;5152921;27;20038;-69
2021/06/02 01:30:55;;;;;;;4.95;1.80;;;;;;;;;;5152902;27;20019;-69
2021/06/02 01:33:34;;;;;;;3.80;1.77;;;;;;;;;;5152829;27;20038;-68
2021/06/02 01:36:13;;;;;;;4.93;1.92;;;;;;;;;;5152723;27;20030;-69
2021/06/02 01:38:45;;;;;;;4.43;1.70;;;;;;;;;;5152535;27;20092;-70
2021/06/02 01:41:11;;;;;;;4.50;1.75;;;;;;;;;;5152813;27;20031;-71
2021/06/02 01:43:37;;;;;;;6.07;1.73;;;;;;;;;;5152952;27;20364;-69
2021/06/02 01:46:03;;;;;;;5.20;1.70;;;;;;;;;;5152691;27;20034;-69
2021/06/02 01:48:29;;;;;;;5.03;1.80;;;;;;;;;;5152729;27;20018;-68
2021/06/02 01:51:01;;;;;;;5.82;1.85;;;;;;;;;;5133975;27;20381;-71
2021/06/02 01:53:47;;;;;;;3.40;1.50;;;;;;;;;;5152670;27;20023;-71
2021/06/02 01:56:16;;;;;;;3.20;1.67;;;;;;;;;;5119865;28;20034;-68
2021/06/02 01:58:45;;;;;;;4.55;1.85;;;;;;;;;;5132004;28;20474;-69
2021/06/02 02:01:30;;;;;;;3.30;1.50;;;;;;;;;;5131646;28;20031;-71
2021/06/02 02:03:56;;;;;;;3.35;1.50;;;;;;;;;;5135345;27;20034;-68
2021/06/02 02:06:41;;;;;;;3.45;1.80;;;;;;;;;;5135978;27;20023;-69
2021/06/02 02:09:19;;;;;;;3.95;1.95;;;;;;;;;;5136116;27;20020;-69
2021/06/02 02:11:45;;;;;;;4.90;1.33;;;;;;;;;;5135951;27;20023;-71
2021/06/02 02:14:17;;;;;;;3.53;1.70;;;;;;;;;;5135825;27;20027;-69
2021/06/02 02:17:04;;;;;;;7.28;2.28;;;;;;;;;;5135963;27;20500;-69
2021/06/02 02:20:09;;;;;;;6.70;3.65;;;;;;;;;;5100257;27;20043;-70
2021/06/02 02:22:53;;;;;;;9.45;5.07;;;;;;;;;;5031827;28;20026;-68
2021/06/02 02:25:27;;;;;;;11.15;5.13;;;;;;;;;;5031950;28;20665;-68
2021/06/02 02:27:59;;;;;;;8.60;4.63;;;;;;;;;;5081863;27;20035;-69
2021/06/02 02:30:45;;;;;;;8.75;4.53;;;;;;;;;;5135645;27;20524;-69
2021/06/02 02:33:20;;;;;;;11.50;4.60;;;;;;;;;;5135588;27;20042;-68
2021/06/02 02:35:53;;;;;;;8.73;3.83;;;;;;;;;;5135312;27;20148;-68
2021/06/02 02:38:25;;;;;;;11.60;4.20;;;;;;;;;;5135325;27;20039;-68
2021/06/02 02:40:58;;;;;;;7.35;3.45;;;;;;;;;;5135371;27;20031;-69
2021/06/02 02:43:31;;;;;;;6.60;3.10;;;;;;;;;;5116960;27;20019;-71
2021/06/02 02:46:15;;;;;;;5.95;3.00;;;;;;;;;;5135300;27;20043;-70
2021/06/02 02:48:44;;;;;;;7.28;3.58;;;;;;;;;;5135230;27;20083;-70
2021/06/02 02:51:29;;;;;;;7.80;3.28;;;;;;;;;;5116766;27;20026;-71
2021/06/02 02:54:08;;;;;;;5.43;3.00;;;;;;;;;;5134888;27;20496;-69
2021/06/02 02:56:58;;;;;;;7.93;3.13;;;;;;;;;;5135003;27;20034;-70
2021/06/02 02:59:24;;;;;;;7.22;2.88;;;;;;;;;;5134803;27;20386;-68
2021/06/02 03:01:50;;;;;;;10.32;3.20;;;;;;;;;;5134785;27;20355;-68
2021/06/02 03:04:22;;;;;;;5.82;2.65;;;;;;;;;;5134883;27;20023;-68
2021/06/02 03:06:51;;;;;;;6.50;2.90;;;;;;;;;;5134731;27;20027;-69
2021/06/02 03:09:29;;;;;;;10.55;3.17;;;;;;;;;;5134781;27;20019;-69
2021/06/02 03:12:18;;;;;;;8.07;2.90;;;;;;;;;;5134558;27;20098;-70
2021/06/02 03:15:20;;;;;;;5.35;2.67;;;;;;;;;;5133952;27;20098;-68
2021/06/02 03:17:49;;;;;;;7.82;2.90;;;;;;;;;;5070529;28;20555;-70
2021/06/02 03:20:32;;;;;;;7.78;3.00;;;;;;;;;;5122562;27;20504;-70
2021/06/02 03:23:11;;;;;;;5.05;2.40;;;;;;;;;;5134321;27;20051;-71
2021/06/02 03:25:37;;;;;;;5.68;2.45;;;;;;;;;;5134446;27;20018;-70
2021/06/02 03:28:12;;;;;;;6.45;2.20;;;;;;;;;;5134441;27;20055;-69
2021/06/02 03:30:54;;;;;;;7.32;2.72;;;;;;;;;;5134263;27;20019;-68
2021/06/02 03:33:30;;;;;;;4.83;2.30;;;;;;;;;;5134236;27;20025;-68
2021/06/02 03:36:08;;;;;;;6.55;2.63;;;;;;;;;;5134182;27;20268;-69
2021/06/02 03:39:00;;;;;;;4.30;1.60;;;;;;;;;;5134009;27;20035;-68
2021/06/02 03:41:35;;;;;;;3.97;1.98;;;;;;;;;;5110070;27;20477;-68
2021/06/02 03:44:17;;;;;;;5.20;2.20;;;;;;;;;;5115748;27;20036;-70
2021/06/02 03:47:00;;;;;;;4.75;1.77;;;;;;;;;;5134181;27;20469;-69
2021/06/02 03:49:44;;;;;;;5.05;1.85;;;;;;;;;;5145276;27;20113;-69
2021/06/02 03:52:28;;;;;;;4.32;1.70;;;;;;;;;;5154461;27;20023;-68
2021/06/02 03:55:00;;;;;;;4.97;1.67;;;;;;;;;;5151587;27;20019;-69
2021/06/02 03:57:35;;;;;;;4.78;1.70;;;;;;;;;;5133783;27;20111;-71
2021/06/02 04:00:16;;;;;;;4.95;1.90;;;;;;;;;;5114983;27;20438;-68
2021/06/02 04:02:46;;;;;;;5.30;1.70;;;;;;;;;;5133650;27;20102;-69
2021/06/02 04:05:22;;;;;;;9.15;1.65;;;;;;;;;;5133622;27;20064;-68
2021/06/02 04:07:48;;;;;;;7.00;1.73;;;;;;;;;;5115183;27;20027;-69
2021/06/02 04:10:19;;;;;;;7.10;1.58;;;;;;;;;;5133558;27;20027;-69
2021/06/02 04:12:48;;;;;;;3.40;1.52;;;;;;;;;;5133602;27;20023;-71
2021/06/02 04:15:16;;;;;;;4.18;2.00;;;;;;;;;;5133510;27;20063;-70
2021/06/02 04:17:47;;;;;;;5.68;1.75;;;;;;;;;;5133356;27;20023;-69
2021/06/02 04:20:13;;;;;;;5.80;1.65;;;;;;;;;;5133328;27;20038;-70
2021/06/02 04:22:41;;;;;;;6.45;1.90;;;;;;;;;;5133373;27;20023;-71
2021/06/02 04:25:08;;;;;;;4.15;1.90;;;;;;;;;;5133156;27;20011;-69
2021/06/02 04:27:38;;;;;;;5.75;2.00;;;;;;;;;;5132356;27;20019;-71
2021/06/02 04:30:05;;;;;;;4.43;1.55;;;;;;;;;;5133290;27;20140;-68
2021/06/02 04:32:39;;;;;;;4.50;1.70;;;;;;;;;;5133206;27;20031;-69
2021/06/02 04:35:06;;;;;;;4.60;1.73;;;;;;;;;;5133030;27;20019;-68
2021/06/02 04:37:34;;;;;;;3.33;1.67;;;;;;;;;;5114467;27;20039;-69
2021/06/02 04:40:01;;;;;;;6.03;1.88;;;;;;;;;;5132894;27;20035;-67
2021/06/02 04:42:28;;;;;;;6.03;1.85;;;;;;;;;;5133066;27;20023;-68
2021/06/02 04:44:55;;;;;;;5.22;1.58;;;;;;;;;;5114620;27;20019;-66
2021/06/02 04:47:21;;;;;;;3.53;1.60;;;;;;;;;;5132892;27;20115;-67
2021/06/02 04:49:56;;;;;;;4.82;1.80;;;;;;;;;;5132653;27;20034;-68
2021/06/02 04:52:41;;;;;;;3.70;1.60;;;;;;;;;;5132789;27;20021;-66
2021/06/02 04:55:10;;;;;;;5.18;1.80;;;;;;;;;;5114088;27;20031;-67
2021/06/02 04:57:55;;;;;;;4.57;1.90;;;;;;;;;;5132592;27;20385;-69
2021/06/02 05:00:30;;;;;;;4.63;2.05;;;;;;;;;;5132529;27;20039;-67
2021/06/02 05:02:56;;;;;;;6.50;1.83;;;;;;;;;;5132578;27;20015;-67
2021/06/02 05:05:33;;;;;;;4.53;1.50;;;;;;;;;;5132715;27;20386;-67
2021/06/02 05:08:29;;;;;;;5.30;1.90;;;;;;;;;;5132381;27;20076;-66
2021/06/02 05:10:55;;;;;;;3.85;1.70;;;;;;;;;;5114367;27;20114;-68
2021/06/02 05:13:30;;;;;;;3.95;1.80;;;;;;;;;;5132384;27;20077;-67
2021/06/02 05:16:18;;;;;;;4.80;1.35;;;;;;;;;;5132323;27;20838;-67
2021/06/02 05:18:45;;;;;;;3.97;1.60;;;;;;;;;;5132381;27;20032;-67
2021/06/02 05:24:01;;;;;;;8.80;1.40;;;;;;;;;;5132568;27;20038;-67
2021/06/02 05:26:46;;;;;;;3.90;1.70;;;;;;;;;;5132233;27;20027;-67
2021/06/02 05:29:15;;;;;;;7.45;1.48;;;;;;;;;;5131992;27;20103;-67
2021/06/02 05:32:07;;;;;;;6.32;1.65;;;;;;;;;;5132065;27;20019;-66
2021/06/02 05:34:33;;;;;;;3.47;1.42;;;;;;;;;;5132345;27;20365;-68
2021/06/02 05:37:25;;;;;;;3.65;1.67;;;;;;;;;;5113301;28;20023;-67
2021/06/02 05:39:57;;;;;;;3.47;1.60;;;;;;;;;;5131957;27;20031;-67
2021/06/02 05:42:43;;;;;;;4.70;1.90;;;;;;;;;;5132164;27;20019;-67
2021/06/02 05:45:09;;;;;;;4.22;1.63;;;;;;;;;;5131842;28;20027;-66
2021/06/02 05:47:50;;;;;;;3.78;1.80;;;;;;;;;;5132025;28;20023;-68
2021/06/02 05:50:35;;;;;;;4.35;1.30;;;;;;;;;;5132026;28;20020;-66
2021/06/02 05:53:20;;;;;;;3.80;1.67;;;;;;;;;;5132014;28;20030;-66
2021/06/02 05:55:51;;;;;;;3.47;1.52;;;;;;;;;;5142114;27;20058;-68
2021/06/02 05:58:17;;;;;;;4.72;1.75;;;;;;;;;;5152718;27;20027;-66
2021/06/02 06:01:03;;;;;;;4.32;1.60;;;;;;;;;;5152542;27;20544;-67
2021/06/02 06:03:49;;;;;;;5.20;1.67;;;;;;;;;;5134036;27;20030;-68
2021/06/02 06:06:21;;;;;;;3.78;1.52;;;;;;;;;;5152213;27;20045;-68
2021/06/02 06:09:08;;;;;;;4.07;1.50;;;;;;;;;;5152415;27;20015;-69
2021/06/02 06:11:53;;;;;;;3.38;1.30;;;;;;;;;;5152700;27;20029;-67
2021/06/02 06:14:19;;;;;;;5.57;1.50;;;;;;;;;;5152432;27;20079;-68
2021/06/02 06:16:54;;;;;;;5.45;1.58;;;;;;;;;;5152313;27;20015;-70
2021/06/02 06:19:44;;;;;;;5.95;1.67;;;;;;;;;;5152345;27;20027;-67
2021/06/02 06:22:10;;;;;;;3.83;1.58;;;;;;;;;;5144093;27;20115;-68
2021/06/02 06:24:39;;;;;;;4.25;1.83;;;;;;;;;;5152491;27;20065;-68
2021/06/02 06:27:08;;;;;;;4.70;1.80;;;;;;;;;;5152506;27;20492;-67
2021/06/02 06:29:34;;;;;;;4.60;1.60;;;;;;;;;;5152470;27;20023;-66
2021/06/02 06:32:01;;;;;;;5.97;1.40;;;;;;;;;;5152281;27;20109;-69
2021/06/02 06:34:30;;;;;;;4.40;1.70;;;;;;;;;;5152101;27;20019;-67
2021/06/02 06:36:57;;;;;;;3.53;1.63;;;;;;;;;;5152132;27;20106;-67
2021/06/02 06:39:26;;;;;;;4.60;1.60;;;;;;;;;;5151963;27;20019;-66
2021/06/02 06:41:53;;;;;;;6.00;1.73;;;;;;;;;;5152125;27;20026;-70
2021/06/02 06:44:20;;;;;;;7.47;1.70;;;;;;;;;;5152154;27;20046;-67
2021/06/02 06:46:46;;;;;;;5.38;1.58;;;;;;;;;;5133558;27;20026;-68
2021/06/02 06:49:13;;;;;;;5.82;1.92;;;;;;;;;;5152557;27;20019;-67
2021/06/02 06:51:41;;;;;;;3.58;1.58;;;;;;;;;;5155830;27;20019;-67
2021/06/02 06:54:10;;;;;;;3.13;1.40;;;;;;;;;;5155976;27;20023;-67
2021/06/02 06:56:36;;;;;;;3.10;1.60;;;;;;;;;;5138215;27;20102;-68
2021/06/02 06:59:03;;;;;;;6.70;1.80;;;;;;;;;;5134850;27;20377;-67
2021/06/02 07:01:29;;;;;;;6.40;1.63;;;;;;;;;;5134787;27;20036;-66
2021/06/02 07:03:57;;;;;;;6.25;1.35;;;;;;;;;;5134725;27;20099;-67
2021/06/02 07:06:24;;;;;;;9.93;2.15;;;;;;;;;;5134880;27;20027;-65
2021/06/02 07:08:50;;;;;;;11.27;2.15;;;;;;;;;;5134625;27;20039;-67
2021/06/02 07:11:20;;;;;;;7.60;2.00;;;;;;;;;;5143408;27;20824;-69
2021/06/02 07:13:47;;;;;;;4.40;1.75;;;;;;;;;;5136313;27;20033;-69
2021/06/02 07:16:14;;;;;;;4.95;1.77;;;;;;;;;;5155565;27;20632;-69
2021/06/02 07:18:41;;;;;;;6.45;1.88;;;;;;;;;;5155388;27;20494;-70
2021/06/02 07:21:08;;;;;;;5.80;1.88;;;;;;;;;;5155270;27;20113;-71
2021/06/02 07:23:35;;;;;;;3.85;1.73;;;;;;;;;;5155362;27;20469;-71
2021/06/02 07:26:01;;;;;;;4.07;1.83;;;;;;;;;;5155379;27;20662;-74
2021/06/02 07:28:34;;;;;;;7.70;2.40;;;;;;;;;;5155149;27;20029;-71
2021/06/02 07:31:00;;;;;;;4.07;1.75;;;;;;;;;;5155227;27;20022;-71
2021/06/02 07:33:26;;;;;;;4.97;2.10;;;;;;;;;;5136498;27;20620;-68
2021/06/02 07:35:53;;;;;;;6.65;1.63;;;;;;;;;;5155115;27;20573;-67
2021/06/02 07:38:19;;;;;;;5.43;1.80;;;;;;;;;;5154811;27;20095;-72
2021/06/02 07:40:45;;;;;;;4.63;2.20;;;;;;;;;;5155041;27;20136;-70
2021/06/02 07:43:11;;;;;;;8.30;1.80;;;;;;;;;;5155107;27;20026;-67
2021/06/02 07:45:38;;;;;;;3.45;1.63;;;;;;;;;;5155171;27;20110;-69
2021/06/02 07:48:04;;;;;;;6.13;2.00;;;;;;;;;;5154577;27;20031;-69
2021/06/02 07:50:30;;;;;;;5.60;1.60;;;;;;;;;;5135833;27;20027;-67
2021/06/02 07:52:56;;;;;;;4.40;1.77;;;;;;;;;;5155043;27;20034;-69
2021/06/02 07:55:22;;;;;;;6.85;2.10;;;;;;;;;;5154707;27;20023;-69
2021/06/02 07:57:48;;;;;;;3.42;1.45;;;;;;;;;;5154802;27;20090;-69
2021/06/02 08:00:15;;;;;;;4.50;2.10;;;;;;;;;;5154313;27;20035;-68
2021/06/02 08:02:41;;;;;;;4.63;1.70;;;;;;;;;;5154227;27;20019;-68
2021/06/02 08:05:07;;;;;;;4.40;1.98;;;;;;;;;;5154548;27;20023;-71
2021/06/02 08:07:34;;;;;;;4.88;1.90;;;;;;;;;;5135990;27;20046;-70
2021/06/02 08:10:00;;;;;;;3.85;1.73;;;;;;;;;;5154312;27;20019;-70
2021/06/02 08:12:26;;;;;;;6.18;1.88;;;;;;;;;;5154373;27;20493;-70
2021/06/02 08:14:52;;;;;;;4.03;1.70;;;;;;;;;;5154562;27;20015;-69
2021/06/02 08:17:18;;;;;;;3.22;1.58;;;;;;;;;;5155018;27;20018;-71
2021/06/02 08:19:44;;;;;;;4.10;1.88;;;;;;;;;;5154811;27;20026;-68
2021/06/02 08:22:10;;;;;;;3.70;1.55;;;;;;;;;;5154310;27;20405;-68
2021/06/02 08:24:40;;;;;;;3.90;1.90;;;;;;;;;;5154249;27;20094;-68
2021/06/02 08:27:10;;;;;;;5.53;1.90;;;;;;;;;;5154165;27;20023;-68
2021/06/02 08:29:36;;;;;;;6.07;1.95;;;;;;;;;;5154546;27;20026;-68
2021/06/02 08:32:02;;;;;;;4.25;1.50;;;;;;;;;;5154155;27;20027;-71
2021/06/02 08:34:28;;;;;;;4.93;2.00;;;;;;;;;;5153906;27;20034;-68
2021/06/02 08:36:54;;;;;;;5.50;1.95;;;;;;;;;;5153740;27;20054;-68
2021/06/02 08:39:20;;;;;;;5.13;1.60;;;;;;;;;;5154013;27;20019;-68
2021/06/02 08:41:49;;;;;;;12.43;2.50;;;;;;;;;;5135069;27;20034;-69
2021/06/02 08:44:16;;;;;;;10.40;3.10;;;;;;;;;;5153698;27;20023;-70
2021/06/02 08:46:42;;;;;;;9.52;2.17;;;;;;;;;;5153943;27;20033;-70
2021/06/02 08:49:08;;;;;;;18.77;3.03;;;;;;;;;;5153635;27;20031;-69
2021/06/02 08:51:35;;;;;;;5.70;2.10;;;;;;;;;;5153675;27;20026;-69
2021/06/02 08:54:01;;;;;;;5.50;2.38;;;;;;;;;;5153524;27;20022;-70
2021/06/02 08:56:28;;;;;;;7.03;2.15;;;;;;;;;;5137137;27;20027;-70
2021/06/02 08:58:54;;;;;;;5.85;1.88;;;;;;;;;;5132550;27;20027;-68
2021/06/02 09:01:24;;;;;;;21.73;3.50;;;;;;;;;;5140906;27;20037;-63
2021/06/02 09:03:50;;;;;;;10.10;2.58;;;;;;;;;;5134889;27;20025;-62
2021/06/02 09:06:16;;;;;;;6.13;2.22;;;;;;;;;;5134606;27;20071;-64
2021/06/02 09:08:43;;;;;;;6.18;2.20;;;;;;;;;;5153242;27;20006;-64
2021/06/02 09:11:17;;;;;;;5.78;2.15;;;;;;;;;;5153128;27;20031;-60
2021/06/02 09:13:44;;;;;;;7.68;2.60;;;;;;;;;;5152449;27;20105;-61
2021/06/02 09:16:16;;;;;;;7.50;2.22;;;;;;;;;;5153269;27;20023;-63
2021/06/02 09:18:46;;;;;;;6.03;2.00;;;;;;;;;;5153167;27;20015;-61
2021/06/02 09:21:13;;;;;;;6.50;2.17;;;;;;;;;;5152911;27;20038;-63
2021/06/02 09:23:40;;;;;;;12.43;2.33;;;;;;;;;;5134401;27;20102;-63
2021/06/02 09:26:12;;;;;;;6.15;1.90;;;;;;;;;;5153091;27;20027;-65
2021/06/02 09:28:38;;;;;;;;;;;;;;;;;;5153494;27;20023;-65
2021/06/02 09:31:25;;;;;;;5.75;2.17;;;;;;;;;;5152966;27;20441;-65
2021/06/02 09:33:51;;;;;;;7.40;1.90;;;;;;;;;;5152951;27;20054;-65
2021/06/02 09:36:17;;;;;;;6.68;1.80;;;;;;;;;;5152750;27;20368;-65
2021/06/02 09:38:52;;;;;;;9.02;2.67;;;;;;;;;;5152751;27;20100;-62
2021/06/02 09:41:18;;;;;;;8.65;2.33;;;;;;;;;;5153281;27;20087;-64
2021/06/02 09:43:44;;;;;;;25.48;3.70;;;;;;;;;;5153554;27;20469;-63
2021/06/02 09:46:13;;;;;;;12.95;2.97;;;;;;;;;;5152895;27;20430;-64
2021/06/02 09:48:40;;;;;;;16.00;3.53;;;;;;;;;;5152770;27;20469;-64
2021/06/02 09:51:07;;;;;;;39.25;4.38;;;;;;;;;;5152824;27;20064;-62
2021/06/02 09:53:52;;;;;;;14.88;2.80;;;;;;;;;;5152767;27;20075;-62
2021/06/02 09:56:31;;;;;;;10.57;2.72;;;;;;;;;;5152573;27;20365;-62
2021/06/02 09:58:57;;;;;;;6.95;2.50;;;;;;;;;;5152710;27;20022;-63
2021/06/02 10:01:23;;;;;;;10.68;3.30;;;;;;;;;;5152662;27;20031;-62
2021/06/02 10:03:49;;;;;;;13.95;3.00;;;;;;;;;;5152594;27;20095;-60
2021/06/02 10:06:16;;;;;;;12.60;2.92;;;;;;;;;;5152348;27;20079;-62
2021/06/02 10:08:42;;;;;;;9.20;2.72;;;;;;;;;;5152402;27;20034;-60
2021/06/02 10:11:12;;;;;;;11.40;2.60;;;;;;;;;;5152518;27;20145;-62
2021/06/02 10:13:39;;;;;;;10.10;2.92;;;;;;;;;;5152449;27;20014;-62
2021/06/02 10:16:05;;;;;;;10.55;2.30;;;;;;;;;;5152548;27;20051;-63
2021/06/02 10:18:32;;;;;;;12.68;2.50;;;;;;;;;;5152665;27;20079;-62
2021/06/02 10:21:06;;;;;;;14.75;2.63;;;;;;;;;;5152512;27;20441;-62
2021/06/02 10:23:35;;;;;;;9.75;3.00;;;;;;;;;;5152568;27;20057;-63
2021/06/02 10:26:02;;;;;;;6.10;2.33;;;;;;;;;;5155816;27;20010;-62
2021/06/02 10:28:30;;;;;;;9.40;2.60;;;;;;;;;;5156278;27;20026;-62
2021/06/02 10:30:56;;;;;;;7.72;2.22;;;;;;;;;;5156277;27;20113;-62
2021/06/02 10:33:22;;;;;;;6.53;1.98;;;;;;;;;;5156057;27;20007;-62
2021/06/02 10:35:48;;;;;;;8.27;2.15;;;;;;;;;;5156216;27;20027;-63
2021/06/02 10:38:15;;;;;;;10.13;2.42;;;;;;;;;;5155983;27;20039;-62
2021/06/02 10:40:42;;;;;;;12.38;2.53;;;;;;;;;;5156248;27;20062;-63
2021/06/02 10:43:08;;;;;;;7.43;2.33;;;;;;;;;;5156189;27;20023;-62
2021/06/02 10:45:36;;;;;;;6.13;1.95;;;;;;;;;;5156137;27;20038;-62
2021/06/02 10:48:03;;;;;;;5.97;2.42;;;;;;;;;;5155948;27;20018;-62
2021/06/02 10:50:37;;;;;;;10.07;2.35;;;;;;;;;;5155942;27;20022;-62
2021/06/02 10:53:28;;;;;;;5.25;2.00;;;;;;;;;;5156109;27;20023;-62
2021/06/02 10:55:58;;;;;;;5.63;1.92;;;;;;;;;;5136668;27;20028;-62
2021/06/02 10:58:30;;;;;;;8.23;1.70;;;;;;;;;;5134917;27;20030;-62
2021/06/02 11:01:19;;;;;;;6.20;2.30;;;;;;;;;;5135652;27;20030;-62
2021/06/02 11:03:46;;;;;;;4.90;1.77;;;;;;;;;;5134897;27;20015;-62
2021/06/02 11:06:15;;;;;;;4.88;1.88;;;;;;;;;;5135217;27;20050;-62
2021/06/02 11:08:57;;;;;;;5.38;1.83;;;;;;;;;;5116524;27;20019;-62
2021/06/02 11:11:23;;;;;;;5.97;1.63;;;;;;;;;;5135227;27;20031;-62
2021/06/02 11:14:07;;;;;;;4.97;1.70;;;;;;;;;;5134881;27;20027;-62
2021/06/02 11:16:40;;;;;;;4.82;1.77;;;;;;;;;;5116385;27;20122;-62
2021/06/02 11:19:13;;;;;;;4.28;1.83;;;;;;;;;;5134755;27;20102;-62
2021/06/02 11:21:55;;;;;;;5.60;1.90;;;;;;;;;;5134551;27;20500;-62
2021/06/02 11:24:42;;;;;;;5.53;1.63;;;;;;;;;;5134601;27;20059;-62
2021/06/02 11:27:14;;;;;;;6.10;1.70;;;;;;;;;;5134551;27;20038;-62
2021/06/02 11:32:15;;;;;;;3.53;1.70;;;;;;;;;;5134408;27;20110;-62
2021/06/02 11:34:41;;;;;;;3.67;1.55;;;;;;;;;;5134239;27;20075;-62
2021/06/02 11:37:08;;;;;;;3.25;1.58;;;;;;;;;;5134101;27;20158;-63
2021/06/02 11:39:37;;;;;;;7.55;1.90;;;;;;;;;;5134367;27;20019;-62
2021/06/02 11:42:04;;;;;;;3.40;1.38;;;;;;;;;;5134137;27;20585;-61
2021/06/02 11:44:31;;;;;;;7.35;2.03;;;;;;;;;;5134187;27;20080;-62
2021/06/02 11:46:57;;;;;;;4.50;1.70;;;;;;;;;;5134243;27;20100;-62
2021/06/02 11:49:33;;;;;;;4.45;1.48;;;;;;;;;;5137867;27;20134;-62
2021/06/02 11:52:26;;;;;;;3.50;1.40;;;;;;;;;;5135545;27;20023;-62
2021/06/02 11:54:52;;;;;;;5.00;1.67;;;;;;;;;;5150348;27;20038;-62
2021/06/02 11:57:32;;;;;;;5.95;1.45;;;;;;;;;;5154456;27;20022;-62
2021/06/02 12:00:00;;;;;;;3.58;1.58;;;;;;;;;;5154224;27;20057;-62
2021/06/02 12:02:26;;;;;;;6.78;1.80;;;;;;;;;;5154448;27;20026;-62
2021/06/02 12:04:52;;;;;;;7.05;1.77;;;;;;;;;;5154338;27;20053;-62
2021/06/02 12:07:22;;;;;;;3.95;1.30;;;;;;;;;;5135970;27;20038;-63
2021/06/02 12:09:49;;;;;;;3.45;1.60;;;;;;;;;;5154099;27;20019;-62
2021/06/02 12:12:15;;;;;;;3.42;1.55;;;;;;;;;;5154503;27;20491;-62
2021/06/02 12:14:41;;;;;;;2.85;1.40;;;;;;;;;;5154203;27;20034;-63
2021/06/02 12:17:07;;;;;;;2.55;1.35;;;;;;;;;;5153946;27;20027;-62
2021/06/02 12:19:34;;;;;;;5.05;1.60;;;;;;;;;;5154088;27;20595;-62
2021/06/02 12:22:19;;;;;;;4.20;1.65;;;;;;;;;;5135481;27;20062;-60
2021/06/02 12:25:00;;;;;;;3.10;1.33;;;;;;;;;;5154155;27;20377;-62
2021/06/02 12:27:26;;;;;;;4.60;1.80;;;;;;;;;;5135739;27;20052;-63
2021/06/02 12:30:03;;;;;;;2.65;1.30;;;;;;;;;;5154001;27;20026;-63
2021/06/02 12:32:41;;;;;;;3.72;1.50;;;;;;;;;;5153763;27;20022;-63
2021/06/02 12:35:28;;;;;;;3.42;1.50;;;;;;;;;;5153946;27;20035;-62
2021/06/02 12:38:20;;;;;;;3.65;1.23;;;;;;;;;;5142729;27;20050;-61
2021/06/02 12:40:53;;;;;;;4.07;1.40;;;;;;;;;;5150906;27;20081;-63
2021/06/02 12:43:20;;;;;;;3.35;1.50;;;;;;;;;;5153909;27;20046;-62
2021/06/02 12:45:47;;;;;;;3.72;1.40;;;;;;;;;;5153408;27;20027;-62
2021/06/02 12:48:15;;;;;;;3.17;1.40;;;;;;;;;;5152773;27;20487;-62
2021/06/02 12:50:46;;;;;;;2.72;1.30;;;;;;;;;;5153895;27;20098;-63
2021/06/02 12:53:13;;;;;;;2.90;1.38;;;;;;;;;;5135020;27;20129;-62
2021/06/02 12:55:41;;;;;;;4.05;1.75;;;;;;;;;;5143996;27;20027;-63
2021/06/02 12:58:15;;;;;;;11.95;1.77;;;;;;;;;;5134045;27;20046;-63
2021/06/02 13:00:50;;;;;;;7.75;1.58;;;;;;;;;;5132548;27;20027;-63
2021/06/02 13:03:20;;;;;;;6.13;1.50;;;;;;;;;;5136790;27;20485;-63
2021/06/02 13:05:48;;;;;;;4.45;1.40;;;;;;;;;;5113934;27;20462;-63
2021/06/02 13:08:14;;;;;;;8.82;1.85;;;;;;;;;;5146593;27;20025;-63
2021/06/02 13:10:42;;;;;;;9.57;2.13;;;;;;;;;;5153249;27;20453;-63
2021/06/02 13:13:09;;;;;;;25.38;3.13;;;;;;;;;;5152540;27;20026;-64
2021/06/02 13:15:41;;;;;;;6.65;1.73;;;;;;;;;;5134375;27;20031;-64
2021/06/02 13:18:22;;;;;;;4.68;1.75;;;;;;;;;;5152533;27;20019;-64
2021/06/02 13:20:48;;;;;;;3.92;1.80;;;;;;;;;;5152685;27;20109;-63
2021/06/02 13:23:15;;;;;;;5.18;1.60;;;;;;;;;;5134654;27;20160;-63
2021/06/02 13:25:42;;;;;;;4.57;1.77;;;;;;;;;;5153234;27;20023;-62
2021/06/02 13:28:08;;;;;;;9.18;1.75;;;;;;;;;;5151819;27;20594;-62
2021/06/02 13:30:37;;;;;;;6.47;1.52;;;;;;;;;;5152185;27;20033;-62
2021/06/02 13:33:03;;;;;;;5.80;1.80;;;;;;;;;;5152759;27;20063;-62
2021/06/02 13:35:29;;;;;;;6.88;1.73;;;;;;;;;;5152690;27;20068;-63
2021/06/02 13:37:55;;;;;;;5.75;1.52;;;;;;;;;;5152491;27;20034;-64
2021/06/02 13:40:23;;;;;;;12.95;2.10;;;;;;;;;;5152562;27;20034;-62
2021/06/02 13:43:04;;;;;;;6.68;2.22;;;;;;;;;;5152654;27;20023;-62
2021/06/02 13:45:37;;;;;;;5.13;1.60;;;;;;;;;;5152777;27;20059;-62
2021/06/02 13:48:22;;;;;;;7.93;1.45;;;;;;;;;;5133751;27;20423;-63
2021/06/02 13:50:49;;;;;;;5.68;2.00;;;;;;;;;;5152685;27;20019;-62
2021/06/02 13:53:15;;;;;;;5.43;1.30;;;;;;;;;;5152527;27;20504;-64
2021/06/02 13:55:41;;;;;;;8.73;1.98;;;;;;;;;;5152440;27;20027;-62
2021/06/02 13:58:16;;;;;;;10.27;1.90;;;;;;;;;;5152985;27;20126;-62
2021/06/02 14:00:42;;;;;;;5.45;1.60;;;;;;;;;;5157146;27;20083;-65
2021/06/02 14:03:09;;;;;;;5.45;1.85;;;;;;;;;;5157097;27;20015;-63
2021/06/02 14:05:35;;;;;;;5.70;1.70;;;;;;;;;;5156778;27;20029;-63
2021/06/02 14:08:01;;;;;;;3.92;1.50;;;;;;;;;;5156667;27;20087;-63
2021/06/02 14:10:27;;;;;;;12.93;1.95;;;;;;;;;;5138264;27;20022;-63
2021/06/02 14:12:57;;;;;;;11.68;2.35;;;;;;;;;;5156487;27;20050;-63
2021/06/02 14:15:23;;;;;;;9.18;2.20;;;;;;;;;;5156617;27;20019;-63
2021/06/02 14:17:49;;;;;;;10.82;2.20;;;;;;;;;;5156202;27;20026;-63
2021/06/02 14:20:15;;;;;;;7.13;2.00;;;;;;;;;;5156485;27;20084;-63
2021/06/02 14:22:41;;;;;;;10.48;2.05;;;;;;;;;;5156648;27;20477;-63
2021/06/02 14:25:09;;;;;;;10.57;1.83;;;;;;;;;;5156119;27;20366;-64
2021/06/02 14:27:35;;;;;;;10.05;2.10;;;;;;;;;;5156494;27;20060;-63
2021/06/02 14:30:01;;;;;;;13.45;2.08;;;;;;;;;;5137783;27;20019;-63
2021/06/02 14:32:28;;;;;;;7.68;1.67;;;;;;;;;;5156371;27;20030;-63
2021/06/02 14:34:54;;;;;;;11.23;2.33;;;;;;;;;;5156140;27;20377;-63
2021/06/02 14:37:20;;;;;;;5.65;1.73;;;;;;;;;;5156061;27;20099;-62
2021/06/02 14:39:46;;;;;;;8.20;1.80;;;;;;;;;;5155967;27;20030;-63
2021/06/02 14:42:13;;;;;;;7.63;1.88;;;;;;;;;;5156142;27;20431;-63
2021/06/02 14:44:39;;;;;;;10.38;1.88;;;;;;;;;;5156225;27;20373;-63
2021/06/02 14:47:06;;;;;;;7.05;1.80;;;;;;;;;;5155894;27;20027;-63
2021/06/02 14:49:33;;;;;;;6.72;1.80;;;;;;;;;;5156012;27;20095;-63
2021/06/02 14:52:00;;;;;;;11.85;2.00;;;;;;;;;;5155858;27;20019;-62
2021/06/02 14:54:27;;;;;;;3.95;1.75;;;;;;;;;;5155855;27;20102;-62
2021/06/02 14:56:54;;;;;;;3.45;1.38;;;;;;;;;;5135839;27;20026;-63
2021/06/02 14:59:20;;;;;;;5.53;1.95;;;;;;;;;;5135031;27;20041;-63
2021/06/02 15:01:46;;;;;;;5.10;1.70;;;;;;;;;;5134739;27;20104;-63
2021/06/02 15:04:12;;;;;;;5.78;1.77;;;;;;;;;;5116381;27;20047;-63
2021/06/02 15:06:38;;;;;;;6.43;1.60;;;;;;;;;;5134815;27;20038;-63